createdAt,value
2023-08-29T00:01:01.031Z,4.50
2023-08-29T00:03:32.642Z,4.88
2023-08-29T00:06:03.453Z,5.13
2023-08-29T00:08:35.308Z,6.15
2023-08-29T00:11:05.305Z,4.97
2023-08-29T00:13:34.772Z,4.75
2023-08-29T00:16:04.884Z,4.78
2023-08-29T00:18:34.402Z,6.25
2023-08-29T00:21:04.070Z,5.13
2023-08-29T00:23:34.946Z,4.85
2023-08-29T00:26:04.581Z,4.63
2023-08-29T00:28:34.154Z,6.20
2023-08-29T00:31:03.749Z,5.63
2023-08-29T00:33:33.302Z,4.78
2023-08-29T00:36:02.794Z,5.70
2023-08-29T00:38:32.296Z,7.07
2023-08-29T00:41:03.383Z,6.57
2023-08-29T00:43:32.980Z,4.18
2023-08-29T00:46:05.658Z,4.20
2023-08-29T00:48:35.863Z,4.65
2023-08-29T00:51:05.445Z,4.55
2023-08-29T00:53:37.916Z,4.15
2023-08-29T00:56:08.930Z,4.05
2023-08-29T00:58:38.832Z,3.33
2023-08-29T01:01:08.672Z,3.10
2023-08-29T01:03:40.050Z,2.85
2023-08-29T01:06:09.575Z,3.30
2023-08-29T01:08:39.494Z,3.65
2023-08-29T01:11:20.538Z,4.68
2023-08-29T01:14:01.207Z,3.05
2023-08-29T01:16:58.775Z,3.13
2023-08-29T01:19:29.560Z,2.63
2023-08-29T01:22:25.357Z,5.38
2023-08-29T01:25:03.652Z,3.30
2023-08-29T01:27:36.503Z,2.88
2023-08-29T01:30:08.417Z,3.00
2023-08-29T01:32:39.086Z,4.07
2023-08-29T01:35:12.491Z,3.72
2023-08-29T01:37:42.154Z,3.13
2023-08-29T01:40:13.020Z,3.47
2023-08-29T01:42:46.082Z,4.10
2023-08-29T01:45:15.636Z,3.72
2023-08-29T01:47:45.214Z,5.45
2023-08-29T01:50:16.869Z,4.20
2023-08-29T01:52:46.442Z,4.00
2023-08-29T01:55:16.144Z,4.03
2023-08-29T01:57:48.815Z,4.28
2023-08-29T02:00:19.154Z,5.45
2023-08-29T02:02:51.395Z,7.03
2023-08-29T02:05:20.978Z,5.88
2023-08-29T02:07:51.803Z,5.57
2023-08-29T02:10:21.739Z,5.22
2023-08-29T02:12:52.753Z,5.75
2023-08-29T02:15:22.287Z,6.43
2023-08-29T02:17:52.431Z,5.75
2023-08-29T02:20:22.110Z,6.82
2023-08-29T02:22:51.680Z,5.80
2023-08-29T02:25:22.095Z,6.97
2023-08-29T02:27:52.978Z,6.65
2023-08-29T02:30:22.568Z,6.30
2023-08-29T02:32:52.175Z,6.20
2023-08-29T02:35:21.743Z,6.43
2023-08-29T02:37:52.975Z,6.78
2023-08-29T02:40:23.549Z,6.13
2023-08-29T02:42:55.048Z,6.45
2023-08-29T02:45:25.118Z,6.78
2023-08-29T02:47:54.731Z,6.20
2023-08-29T02:50:24.253Z,6.45
2023-08-29T02:52:53.810Z,6.70
2023-08-29T02:55:23.287Z,5.88
2023-08-29T02:57:54.133Z,5.25
2023-08-29T03:00:23.665Z,4.72
2023-08-29T03:02:53.835Z,4.63
2023-08-29T03:05:23.973Z,4.95
2023-08-29T03:07:53.487Z,5.40
2023-08-29T03:10:23.042Z,5.03
2023-08-29T03:12:54.619Z,4.05
2023-08-29T03:15:24.577Z,4.70
2023-08-29T03:17:54.151Z,5.03
2023-08-29T03:20:24.215Z,3.67
2023-08-29T03:22:54.642Z,4.10
2023-08-29T03:25:24.615Z,3.95
2023-08-29T03:27:55.450Z,3.25
2023-08-29T03:30:26.931Z,3.95
2023-08-29T03:32:57.231Z,3.23
2023-08-29T03:35:26.753Z,3.95
2023-08-29T03:37:56.258Z,3.92
2023-08-29T03:40:25.806Z,3.33
2023-08-29T03:42:58.187Z,3.20
2023-08-29T03:45:27.662Z,3.47
2023-08-29T03:47:57.478Z,3.37
2023-08-29T03:50:27.338Z,3.20
2023-08-29T03:52:57.697Z,3.08
2023-08-29T03:55:27.287Z,2.97
2023-08-29T03:57:58.152Z,3.70
2023-08-29T04:00:28.621Z,3.88
2023-08-29T04:02:58.153Z,4.22
2023-08-29T04:05:28.315Z,4.25
2023-08-29T04:07:57.898Z,5.20
2023-08-29T04:10:27.638Z,4.50
2023-08-29T04:12:58.450Z,4.65
2023-08-29T04:15:27.973Z,4.85
2023-08-29T04:17:57.557Z,4.47
2023-08-29T04:20:27.263Z,4.97
2023-08-29T04:22:57.135Z,3.22
2023-08-29T04:25:27.849Z,4.88
2023-08-29T04:27:59.213Z,3.30
2023-08-29T04:30:28.924Z,3.95
2023-08-29T04:33:00.949Z,3.58
2023-08-29T04:35:30.650Z,3.20
2023-08-29T04:38:00.148Z,4.43
2023-08-29T04:40:30.840Z,3.13
2023-08-29T04:43:01.836Z,3.00
2023-08-29T04:45:31.348Z,3.65
2023-08-29T04:48:01.096Z,2.92
2023-08-29T04:50:31.445Z,3.33
2023-08-29T04:53:01.968Z,3.53
2023-08-29T04:55:31.636Z,3.20
2023-08-29T04:58:02.520Z,2.42
2023-08-29T05:00:32.094Z,2.53
2023-08-29T05:03:01.943Z,2.85
2023-08-29T05:05:31.651Z,2.55
2023-08-29T05:08:01.185Z,2.40
2023-08-29T05:10:30.864Z,2.47
2023-08-29T05:13:01.709Z,2.40
2023-08-29T05:15:31.372Z,3.08
2023-08-29T05:18:01.293Z,2.63
2023-08-29T05:20:30.845Z,2.53
2023-08-29T05:23:00.632Z,2.55
2023-08-29T05:25:30.073Z,2.97
2023-08-29T05:28:01.082Z,5.40
2023-08-29T05:30:31.659Z,3.53
2023-08-29T05:33:01.438Z,2.95
2023-08-29T05:35:31.441Z,4.43
2023-08-29T05:38:00.940Z,5.38
2023-08-29T05:40:32.104Z,5.28
2023-08-29T05:45:34.308Z,5.78
2023-08-29T05:48:04.973Z,4.78
2023-08-29T05:50:35.027Z,5.50
2023-08-29T05:53:04.732Z,5.95
2023-08-29T05:55:34.241Z,5.55
2023-08-29T05:58:05.774Z,5.75
2023-08-29T06:00:36.962Z,5.75
2023-08-29T06:03:09.196Z,6.40
2023-08-29T06:05:39.739Z,5.20
2023-08-29T06:08:18.947Z,5.28
2023-08-29T06:10:49.668Z,5.50
2023-08-29T06:13:20.513Z,5.63
2023-08-29T06:15:50.007Z,5.75
2023-08-29T06:18:19.517Z,5.40
2023-08-29T06:20:48.986Z,5.80
2023-08-29T06:23:19.129Z,6.10
2023-08-29T06:25:50.043Z,6.15
2023-08-29T06:28:20.993Z,5.10
2023-08-29T06:30:50.495Z,5.63
2023-08-29T06:33:20.097Z,5.38
2023-08-29T06:35:49.588Z,6.13
2023-08-29T06:38:19.091Z,5.18
2023-08-29T06:40:56.775Z,4.80
2023-08-29T06:43:27.789Z,5.05
2023-08-29T06:45:58.806Z,4.60
2023-08-29T06:48:28.664Z,5.22
2023-08-29T06:50:58.144Z,4.25
2023-08-29T06:53:28.036Z,5.03
2023-08-29T06:55:57.565Z,4.22
2023-08-29T06:58:28.447Z,4.65
2023-08-29T07:00:58.929Z,3.92
2023-08-29T07:03:28.574Z,4.18
2023-08-29T07:05:58.249Z,3.92
2023-08-29T07:08:27.722Z,4.10
2023-08-29T07:10:57.193Z,4.65
2023-08-29T07:13:28.096Z,3.42
2023-08-29T07:15:57.646Z,4.53
2023-08-29T07:18:27.149Z,1.90
2023-08-29T07:20:56.649Z,2.30
2023-08-29T07:23:26.178Z,1.90
2023-08-29T07:25:55.803Z,2.50
2023-08-29T07:28:25.318Z,2.10
2023-08-29T07:30:56.816Z,1.92
2023-08-29T07:33:26.462Z,1.80
2023-08-29T07:35:55.919Z,1.77
2023-08-29T07:38:25.484Z,1.55
2023-08-29T07:40:55.058Z,2.42
2023-08-29T07:43:24.549Z,1.63
2023-08-29T07:45:55.458Z,1.95
2023-08-29T07:48:24.974Z,2.65
2023-08-29T07:50:54.490Z,3.65
2023-08-29T07:53:24.038Z,2.35
2023-08-29T07:55:53.910Z,2.03
2023-08-29T07:58:23.390Z,2.40
2023-08-29T08:00:52.915Z,3.22
2023-08-29T08:03:23.818Z,3.33
2023-08-29T08:05:53.752Z,2.63
2023-08-29T08:08:23.255Z,3.30
2023-08-29T08:10:52.798Z,2.88
2023-08-29T08:13:22.663Z,1.73
2023-08-29T08:15:52.357Z,2.50
2023-08-29T08:18:23.387Z,2.45
2023-08-29T08:20:53.244Z,3.05
2023-08-29T08:23:22.722Z,3.13
2023-08-29T08:25:52.211Z,2.20
2023-08-29T08:28:22.997Z,2.00
2023-08-29T08:30:52.510Z,2.85
2023-08-29T08:33:25.767Z,2.30
2023-08-29T08:35:57.452Z,2.20
2023-08-29T08:38:27.311Z,3.13
2023-08-29T08:40:58.387Z,2.25
2023-08-29T08:43:30.693Z,1.83
2023-08-29T08:46:01.131Z,2.95
2023-08-29T08:48:33.010Z,2.05
2023-08-29T08:51:03.013Z,2.17
2023-08-29T08:53:33.258Z,1.90
2023-08-29T08:56:04.225Z,3.83
2023-08-29T08:58:33.829Z,1.55
2023-08-29T09:01:04.038Z,1.85
2023-08-29T09:03:36.646Z,2.20
2023-08-29T09:06:13.389Z,2.20
2023-08-29T09:08:43.566Z,1.90
2023-08-29T09:11:13.069Z,2.42
2023-08-29T09:13:48.570Z,2.65
2023-08-29T09:16:18.629Z,1.60
2023-08-29T09:18:52.979Z,1.40
2023-08-29T09:21:23.418Z,2.63
2023-08-29T09:23:53.584Z,1.33
2023-08-29T09:26:23.169Z,1.80
2023-08-29T09:28:52.665Z,1.88
2023-08-29T09:31:22.249Z,1.48
2023-08-29T09:33:53.696Z,2.00
2023-08-29T09:36:23.203Z,1.63
2023-08-29T09:38:52.729Z,1.92
2023-08-29T09:41:22.203Z,1.63
2023-08-29T09:43:51.663Z,1.95
2023-08-29T09:46:28.318Z,1.65
2023-08-29T09:48:59.593Z,1.48
2023-08-29T09:51:30.938Z,2.38
2023-08-29T09:54:01.233Z,2.17
2023-08-29T09:56:32.718Z,1.92
2023-08-29T09:59:03.962Z,1.17
2023-08-29T10:01:34.905Z,1.23
2023-08-29T10:04:08.293Z,2.17
2023-08-29T10:06:40.580Z,1.77
2023-08-29T10:09:11.489Z,1.35
2023-08-29T10:11:53.579Z,2.95
2023-08-29T10:14:25.214Z,0.80
2023-08-29T10:16:56.307Z,1.27
2023-08-29T10:19:29.728Z,2.05
2023-08-29T10:21:59.772Z,1.38
2023-08-29T10:24:30.483Z,1.80
2023-08-29T10:27:01.121Z,1.95
2023-08-29T10:29:30.861Z,2.55
2023-08-29T10:32:02.613Z,1.23
2023-08-29T10:34:33.545Z,1.95
2023-08-29T10:37:04.682Z,1.13
2023-08-29T10:39:34.698Z,1.45
2023-08-29T10:42:04.607Z,1.40
2023-08-29T10:44:45.271Z,1.45
2023-08-29T10:47:27.882Z,1.25
2023-08-29T10:50:06.494Z,1.08
2023-08-29T10:52:41.621Z,1.05
2023-08-29T10:55:24.279Z,1.30
2023-08-29T10:57:54.761Z,1.27
2023-08-29T11:00:56.086Z,1.45
2023-08-29T11:03:47.802Z,1.30
2023-08-29T11:06:19.867Z,1.58
2023-08-29T11:08:49.613Z,1.52
2023-08-29T11:11:21.310Z,1.50
2023-08-29T11:14:04.047Z,0.95
2023-08-29T11:16:36.522Z,1.17
2023-08-29T11:19:10.935Z,1.65
2023-08-29T11:21:43.018Z,0.80
2023-08-29T11:24:17.050Z,1.40
2023-08-29T11:26:48.786Z,0.73
2023-08-29T11:29:18.474Z,0.68
2023-08-29T11:31:48.506Z,1.33
2023-08-29T11:34:21.964Z,1.70
2023-08-29T11:36:53.750Z,1.08
2023-08-29T11:39:23.529Z,1.30
2023-08-29T11:42:14.549Z,0.70
2023-08-29T11:45:37.932Z,0.80
2023-08-29T11:47:32.747Z,1.10
2023-08-29T11:50:05.800Z,0.90
2023-08-29T11:55:12.270Z,0.60
2023-08-29T11:57:45.594Z,0.60
2023-08-29T12:00:17.457Z,0.98
2023-08-29T12:02:47.166Z,1.05
2023-08-29T12:05:16.690Z,1.17
2023-08-29T12:07:52.217Z,1.00
2023-08-29T12:10:21.751Z,1.65
2023-08-29T12:12:51.208Z,2.30
2023-08-29T12:15:30.842Z,1.10
2023-08-29T12:18:10.807Z,0.52
2023-08-29T12:20:40.675Z,1.35
2023-08-29T12:23:12.423Z,0.80
2023-08-29T12:25:42.049Z,1.48
2023-08-29T12:28:13.664Z,1.08
2023-08-29T12:30:43.288Z,1.10
2023-08-29T12:33:13.181Z,1.30
2023-08-29T12:35:43.596Z,0.73
2023-08-29T12:38:14.551Z,0.63
2023-08-29T12:40:44.222Z,0.95
2023-08-29T12:43:14.250Z,1.08
2023-08-29T12:45:56.604Z,1.70
2023-08-29T12:48:29.213Z,2.83
2023-08-29T12:50:59.746Z,1.52
2023-08-29T12:53:32.105Z,1.38
2023-08-29T12:56:01.648Z,2.10
2023-08-29T12:58:31.240Z,1.73
2023-08-29T13:01:00.885Z,2.22
2023-08-29T13:03:30.435Z,1.38
2023-08-29T13:06:00.060Z,1.10
2023-08-29T13:08:30.865Z,1.48
2023-08-29T13:11:01.508Z,1.83
2023-08-29T13:13:40.225Z,1.52
2023-08-29T13:16:09.785Z,2.50
2023-08-29T13:18:39.343Z,1.30
2023-08-29T13:21:09.649Z,1.52
2023-08-29T13:23:40.559Z,2.33
2023-08-29T13:26:10.088Z,3.35
2023-08-29T13:28:39.608Z,1.70
2023-08-29T13:31:09.613Z,2.08
2023-08-29T13:33:39.288Z,2.65
2023-08-29T13:36:09.399Z,1.88
2023-08-29T13:38:40.781Z,1.73
2023-08-29T13:41:10.430Z,2.10
2023-08-29T13:43:39.953Z,1.98
2023-08-29T13:46:09.613Z,1.83
2023-08-29T13:48:39.481Z,2.72
2023-08-29T13:51:08.989Z,2.15
2023-08-29T13:53:39.819Z,1.88
2023-08-29T13:56:09.345Z,1.17
2023-08-29T13:58:38.869Z,3.17
2023-08-29T14:01:08.773Z,1.83
2023-08-29T14:03:39.602Z,2.47
2023-08-29T14:06:09.310Z,1.90
2023-08-29T14:08:40.156Z,2.40
2023-08-29T14:11:09.693Z,2.33
2023-08-29T14:13:39.169Z,2.22
2023-08-29T14:16:09.864Z,3.05
2023-08-29T14:18:42.759Z,2.88
2023-08-29T14:21:12.291Z,2.20
2023-08-29T14:23:43.290Z,1.98
2023-08-29T14:26:13.004Z,1.42
2023-08-29T14:28:42.554Z,1.50
2023-08-29T14:31:12.178Z,1.50
2023-08-29T14:33:41.819Z,1.00
2023-08-29T14:36:11.381Z,1.63
2023-08-29T14:38:42.244Z,1.27
2023-08-29T14:41:12.736Z,1.40
2023-08-29T14:43:42.947Z,2.75
2023-08-29T14:46:12.582Z,1.80
2023-08-29T14:48:42.718Z,2.80
2023-08-29T14:51:12.279Z,1.67
2023-08-29T14:53:43.136Z,2.15
2023-08-29T14:56:12.782Z,1.95
2023-08-29T14:58:45.786Z,1.58
2023-08-29T15:01:15.812Z,1.40
2023-08-29T15:03:45.408Z,1.70
2023-08-29T15:06:16.425Z,1.42
2023-08-29T15:08:48.628Z,1.10
2023-08-29T15:11:19.602Z,1.23
2023-08-29T15:13:49.088Z,1.40
2023-08-29T15:16:19.383Z,1.40
2023-08-29T15:18:48.910Z,1.75
2023-08-29T15:21:19.950Z,1.10
2023-08-29T15:23:51.281Z,0.93
2023-08-29T15:26:20.805Z,1.60
2023-08-29T15:28:50.252Z,0.95
2023-08-29T15:31:19.783Z,2.22
2023-08-29T15:33:49.350Z,1.38
2023-08-29T15:36:20.008Z,2.85
2023-08-29T15:38:51.160Z,3.05
2023-08-29T15:41:20.969Z,1.67
2023-08-29T15:43:50.559Z,1.67
2023-08-29T15:46:21.388Z,2.30
2023-08-29T15:48:51.056Z,2.30
2023-08-29T15:51:20.622Z,2.45
2023-08-29T15:53:53.328Z,1.98
2023-08-29T15:56:22.816Z,1.83
2023-08-29T15:58:52.307Z,3.05
2023-08-29T16:01:22.323Z,2.10
2023-08-29T16:03:52.509Z,2.45
2023-08-29T16:06:22.214Z,2.47
2023-08-29T16:08:53.051Z,2.63
2023-08-29T16:11:22.507Z,3.10
2023-08-29T16:13:52.017Z,3.20
2023-08-29T16:16:21.528Z,3.80
2023-08-29T16:18:51.534Z,2.10
2023-08-29T16:21:21.166Z,1.95
2023-08-29T16:23:52.044Z,1.98
2023-08-29T16:26:22.597Z,2.22
2023-08-29T16:28:52.272Z,3.25
2023-08-29T16:31:21.992Z,3.85
2023-08-29T16:33:51.572Z,3.33
2023-08-29T16:36:21.880Z,2.05
2023-08-29T16:38:53.076Z,2.60
2023-08-29T16:41:22.575Z,2.05
2023-08-29T16:43:52.114Z,2.47
2023-08-29T16:46:21.773Z,1.55
2023-08-29T16:48:51.352Z,2.55
2023-08-29T16:51:20.821Z,3.35
2023-08-29T16:53:50.294Z,2.08
2023-08-29T16:56:21.186Z,1.95
2023-08-29T16:58:51.352Z,1.48
2023-08-29T17:01:20.849Z,0.90
2023-08-29T17:03:50.441Z,0.93
2023-08-29T17:06:20.239Z,2.33
2023-08-29T17:08:49.772Z,2.63
2023-08-29T17:11:20.617Z,1.65
2023-08-29T17:13:50.154Z,2.22
2023-08-29T17:16:19.692Z,1.55
2023-08-29T17:18:49.407Z,1.90
2023-08-29T17:21:19.000Z,2.55
2023-08-29T17:23:48.564Z,3.22
2023-08-29T17:26:19.124Z,2.05
2023-08-29T17:28:51.002Z,2.63
2023-08-29T17:31:20.545Z,3.42
2023-08-29T17:33:50.058Z,2.85
2023-08-29T17:36:19.529Z,2.40
2023-08-29T17:38:49.609Z,4.63
2023-08-29T17:41:20.358Z,5.05
2023-08-29T17:43:51.363Z,3.72
2023-08-29T17:46:21.181Z,4.03
2023-08-29T17:48:50.885Z,4.38
2023-08-29T17:51:20.506Z,3.50
2023-08-29T17:53:50.505Z,3.95
2023-08-29T17:56:19.930Z,5.13
2023-08-29T17:58:52.089Z,4.25
2023-08-29T18:01:23.083Z,3.03
2023-08-29T18:03:52.938Z,3.70
2023-08-29T18:06:24.985Z,3.20
2023-08-29T18:08:56.142Z,3.85
2023-08-29T18:11:25.680Z,4.10
2023-08-29T18:13:56.616Z,3.53
2023-08-29T18:16:26.249Z,5.65
2023-08-29T18:18:59.056Z,4.07
2023-08-29T18:21:30.417Z,4.38
2023-08-29T18:24:00.284Z,3.60
2023-08-29T18:26:30.660Z,3.42
2023-08-29T18:29:01.986Z,4.53
2023-08-29T18:31:31.710Z,6.32
2023-08-29T18:34:06.321Z,3.47
2023-08-29T18:36:37.628Z,4.07
2023-08-29T18:39:09.113Z,3.75
2023-08-29T18:41:38.693Z,5.43
2023-08-29T18:44:09.654Z,4.50
2023-08-29T18:46:39.253Z,5.70
2023-08-29T18:49:08.748Z,3.10
2023-08-29T18:51:38.304Z,4.10
2023-08-29T18:54:08.050Z,4.68
2023-08-29T18:56:37.788Z,4.80
2023-08-29T18:59:08.710Z,6.50
2023-08-29T19:01:38.460Z,3.55
2023-08-29T19:04:08.732Z,2.70
2023-08-29T19:06:38.361Z,4.03
2023-08-29T19:09:09.520Z,2.47
2023-08-29T19:11:39.150Z,3.15
2023-08-29T19:14:10.359Z,2.13
2023-08-29T19:16:40.027Z,4.63
2023-08-29T19:19:12.881Z,1.83
2023-08-29T19:21:42.483Z,4.47
2023-08-29T19:24:11.956Z,2.55
2023-08-29T19:26:41.533Z,2.67
2023-08-29T19:29:12.358Z,2.58
2023-08-29T19:31:41.840Z,4.53
2023-08-29T19:34:11.267Z,3.42
2023-08-29T19:36:41.549Z,2.92
2023-08-29T19:39:17.190Z,2.22
2023-08-29T19:41:47.451Z,1.95
2023-08-29T19:44:19.064Z,2.90
2023-08-29T19:46:49.311Z,2.90
2023-08-29T19:49:19.015Z,3.22
2023-08-29T19:51:48.436Z,2.78
2023-08-29T19:54:17.971Z,6.15
2023-08-29T19:56:47.469Z,2.63
2023-08-29T19:59:19.170Z,3.22
2023-08-29T20:01:48.622Z,3.22
2023-08-29T20:04:18.106Z,3.55
2023-08-29T20:06:47.590Z,2.88
2023-08-29T20:09:17.070Z,4.03
2023-08-29T20:11:47.220Z,2.25
2023-08-29T20:14:18.113Z,2.83
2023-08-29T20:16:47.675Z,3.78
2023-08-29T20:19:17.213Z,4.00
2023-08-29T20:21:46.769Z,7.38
2023-08-29T20:24:16.612Z,3.83
2023-08-29T20:26:46.259Z,4.15
2023-08-29T20:29:17.539Z,4.03
2023-08-29T20:31:47.304Z,5.05
2023-08-29T20:34:17.648Z,3.60
2023-08-29T20:36:48.901Z,5.50
2023-08-29T20:39:18.894Z,6.50
2023-08-29T20:41:48.365Z,8.52
2023-08-29T20:44:19.420Z,7.03
2023-08-29T20:46:48.930Z,7.85
2023-08-29T20:49:18.433Z,9.07
2023-08-29T20:51:47.980Z,8.88
2023-08-29T20:54:17.466Z,9.82
2023-08-29T20:56:48.604Z,10.30
2023-08-29T20:59:19.443Z,10.77
2023-08-29T21:01:48.939Z,11.45
2023-08-29T21:04:18.432Z,10.43
2023-08-29T21:06:47.973Z,10.52
2023-08-29T21:09:17.438Z,10.60
2023-08-29T21:11:49.441Z,11.40
2023-08-29T21:14:21.172Z,12.75
2023-08-29T21:16:50.896Z,11.40
2023-08-29T21:19:20.622Z,12.18
2023-08-29T21:21:50.625Z,11.88
2023-08-29T21:24:20.683Z,12.52
2023-08-29T21:26:50.217Z,13.02
2023-08-29T21:29:22.129Z,11.68
2023-08-29T21:31:51.689Z,12.02
2023-08-29T21:34:23.358Z,12.45
2023-08-29T21:36:52.952Z,14.32
2023-08-29T21:39:22.559Z,13.10
2023-08-29T21:41:52.039Z,12.77
2023-08-29T21:44:22.910Z,13.30
2023-08-29T21:46:52.538Z,14.63
2023-08-29T21:49:22.066Z,12.27
2023-08-29T21:51:51.665Z,12.82
2023-08-29T21:54:21.912Z,12.25
2023-08-29T21:56:51.415Z,12.75
2023-08-29T21:59:22.314Z,12.80
2023-08-29T22:01:51.822Z,12.25
2023-08-29T22:04:21.343Z,11.00
2023-08-29T22:06:50.795Z,10.55
2023-08-29T22:09:20.298Z,11.63
2023-08-29T22:11:49.826Z,11.27
2023-08-29T22:14:19.389Z,9.68
2023-08-29T22:16:50.264Z,13.07
2023-08-29T22:19:19.752Z,11.35
2023-08-29T22:21:49.667Z,10.80
2023-08-29T22:24:19.348Z,10.85
2023-08-29T22:26:48.917Z,10.77
2023-08-29T22:29:27.832Z,10.98
2023-08-29T22:31:59.813Z,10.30
2023-08-29T22:34:30.522Z,10.70
2023-08-29T22:37:00.643Z,10.48
2023-08-29T23:04:24.285Z,12.02
2023-08-29T23:07:04.709Z,12.10
2023-08-29T23:09:34.680Z,12.20
2023-08-29T23:12:06.372Z,12.52
2023-08-29T23:14:36.926Z,10.88
2023-08-29T23:17:09.482Z,11.40
2023-08-29T23:19:39.445Z,12.77
2023-08-29T23:22:10.722Z,11.60
2023-08-29T23:24:40.650Z,11.57
2023-08-29T23:27:10.983Z,12.75
2023-08-29T23:29:40.752Z,12.32
2023-08-29T23:32:10.474Z,11.55
2023-08-29T23:34:40.323Z,13.60
2023-08-29T23:37:11.459Z,15.60
2023-08-29T23:39:41.247Z,13.23
2023-08-29T23:42:11.822Z,11.60
2023-08-29T23:44:41.492Z,13.02
2023-08-29T23:47:11.187Z,11.98
2023-08-29T23:49:40.829Z,12.52
2023-08-29T23:52:11.866Z,12.55
2023-08-29T23:54:41.572Z,13.95
2023-08-29T23:57:11.197Z,12.90
2023-08-29T23:59:40.900Z,12.85
